Coushatta — GDF4876 — position and weather

sailwx.info

Track history (hours):
 
Tides and Currents Weather Stations Pressure Air Temp Water Temp Dewpoint Dewpoint Depression Visibility Wind Speed Wind Dir Waves Ship Positions

Coushatta

Last reported at 2017-Oct-22 13:02 UTC. Time now 2017-Oct-22 23:07 UTC.
Position N 29°44' W 095°01'.

Length 22 m; draft 3 m.

Type: Towing. MMSI: 367456770.

Date/timePositionNaut miles runAvg speedWind from/ knotsBaromVisibWave heightAir tempDewpointWater temp
2017-Oct-22 13:02N 29°44' W 095°01'0 1.0
2017-Oct-22 13:00N 29°44' W 095°01'0 0.2
2017-Oct-22 12:24N 29°44' W 095°01'0 0.0
2017-Oct-22 08:28N 29°44' W 095°01'0 0.0
2017-Oct-21 15:28N 29°44' W 095°01'0 0.0
2017-Oct-21 14:02N 29°44' W 095°01'0 0.0
2017-Oct-21 13:29N 29°44' W 095°01'0 0.0
2017-Oct-21 06:52N 29°44' W 095°01'2 4.6
2017-Oct-21 06:21N 29°42' W 094°60'2 6.8
2017-Oct-21 06:00N 29°40' W 094°58'71 4.3
2017-Oct-20 13:25N 30°04' W 093°41'2 4.7
2017-Oct-20 13:00N 30°04' W 093°39'3 5.6
2017-Oct-20 12:30N 30°04' W 093°35'3 6.0
2017-Oct-20 12:00N 30°04' W 093°32'3 6.1
2017-Oct-20 11:30N 30°04' W 093°28'3 5.3
2017-Oct-20 11:00N 30°04' W 093°25'3 5.7
2017-Oct-20 10:30N 30°04' W 093°22'1 2.7
2017-Oct-20 10:00N 30°04' W 093°21'0 0.0
2017-Oct-20 09:30N 30°04' W 093°21'0 0.0
2017-Oct-20 09:00N 30°04' W 093°21'0 0.1
2017-Oct-20 08:30N 30°04' W 093°21'1 1.3
2017-Oct-20 08:00N 30°05' W 093°20'1 1.1
2017-Oct-20 07:30N 30°04' W 093°21'1 2.2
2017-Oct-20 07:00N 30°04' W 093°22'1 1.3
2017-Oct-20 06:30N 30°04' W 093°22'0 0.1
2017-Oct-20 06:01N 30°04' W 093°22'0 0.0
2017-Oct-20 05:30N 30°04' W 093°22'0 0.6
2017-Oct-20 05:00N 30°04' W 093°23'2 3.2
2017-Oct-20 04:30N 30°04' W 093°25'1 2.5
2017-Oct-20 04:00N 30°04' W 093°26'2 4.3
2017-Oct-20 03:30N 30°04' W 093°29'2 4.7
2017-Oct-20 03:00N 30°04' W 093°31'20 1.5
2017-Oct-19 14:15N 29°56' W 093°52'0 0.0
2017-Oct-19 13:59N 29°56' W 093°52'0 0.0
2017-Oct-19 13:30N 29°56' W 093°52'0 0.0
2017-Oct-19 09:41N 29°56' W 093°52'0 0.0
2017-Oct-19 09:28N 29°56' W 093°52'58 2.8
2017-Oct-18 12:23N 29°31' W 094°53'2 6.0
2017-Oct-18 12:00N 29°32' W 094°54'3 6.4
2017-Oct-18 11:30N 29°35' W 094°56'3 6.5
2017-Oct-18 11:00N 29°38' W 094°58'3 6.5
2017-Oct-18 10:30N 29°41' W 094°59'3 5.9
2017-Oct-18 09:58N 29°43' W 095°01'3 5.6
2017-Oct-18 09:29N 29°45' W 095°04'3 3.8
2017-Oct-18 08:49N 29°47' W 095°04'0 0.2
2017-Oct-18 08:26N 29°47' W 095°04'5 1.8
2017-Oct-18 05:42N 29°43' W 095°01'1 3.5
2017-Oct-18 05:30N 29°42' W 095°01'3 5.2
2017-Oct-18 05:00N 29°41' W 094°59'3 5.9
2017-Oct-18 04:30N 29°38' W 094°58'70 3.8
2017-Oct-17 10:07N 30°03' W 093°43'1 4.1
2017-Oct-17 09:50N 30°04' W 093°42'1 4.4
2017-Oct-17 09:30N 30°04' W 093°40'2 4.3
2017-Oct-17 09:00N 30°04' W 093°37'2 4.1
2017-Oct-17 08:30N 30°04' W 093°35'2 4.1
2017-Oct-17 08:00N 30°04' W 093°33'2 4.2
2017-Oct-17 07:30N 30°04' W 093°30'2 4.2
2017-Oct-17 07:00N 30°04' W 093°28'2 4.1
2017-Oct-17 06:30N 30°04' W 093°25'2 4.1
2017-Oct-17 06:00N 30°04' W 093°23'2 3.3
2017-Oct-17 05:30N 30°04' W 093°21'2 3.3
2017-Oct-17 05:00N 30°05' W 093°20'0 0.7
2017-Oct-17 04:30N 30°05' W 093°20'0 0.2
2017-Oct-17 04:00N 30°05' W 093°20'0 0.1
2017-Oct-17 03:30N 30°05' W 093°20'0 0.0
2017-Oct-17 03:00N 30°05' W 093°20'0 0.0
2017-Oct-17 02:31N 30°05' W 093°20'0 0.0
2017-Oct-17 02:00N 30°05' W 093°20'0 0.0
2017-Oct-17 01:30N 30°05' W 093°20'0 0.0
2017-Oct-17 01:00N 30°05' W 093°20'0 0.0
2017-Oct-17 00:30N 30°05' W 093°20'0 0.0
2017-Oct-17 00:00N 30°05' W 093°20'0 0.1
2017-Oct-16 23:30N 30°05' W 093°20'2 3.3
2017-Oct-16 23:00N 30°05' W 093°18'1 1.3
2017-Oct-16 22:30N 30°05' W 093°17'2 3.0
2017-Oct-16 22:00N 30°04' W 093°16'0 0.0
2017-Oct-16 21:30N 30°04' W 093°16'0 0.0
2017-Oct-16 21:00N 30°04' W 093°16'0 0.0
2017-Oct-16 20:30N 30°04' W 093°16'0 0.5
2017-Oct-16 20:00N 30°04' W 093°16'2 4.7
2017-Oct-16 19:30N 30°02' W 093°15'3 5.0
2017-Oct-16 19:00N 29°60' W 093°13'3 5.5
2017-Oct-16 18:30N 29°58' W 093°11'2 5.0
2017-Oct-16 18:00N 29°56' W 093°09'3 5.3
2017-Oct-16 17:29N 29°56' W 093°05'39 4.6
2017-Oct-16 09:02N 29°51' W 092°21'0 5.1
2017-Oct-16 09:00N 29°51' W 092°21'2 4.9
2017-Oct-16 08:30N 29°50' W 092°18'2 4.0
2017-Oct-16 08:00N 29°49' W 092°16'1 3.0
2017-Oct-16 07:30N 29°48' W 092°15'2 4.4
2017-Oct-16 07:00N 29°47' W 092°13'2 3.8
2017-Oct-16 06:30N 29°47' W 092°11'3 5.1
2017-Oct-16 06:00N 29°47' W 092°08'3 5.5
2017-Oct-16 05:30N 29°48' W 092°05'  
2017-Oct-12 14:05N 29°50' W 091°60'0 4.3
2017-Oct-12 14:00N 29°50' W 092°00'2 4.3
2017-Oct-12 13:30N 29°49' W 092°02'  
Track history (hours):
 
Tides and Currents Weather Stations Pressure Air Temp Water Temp Dewpoint Dewpoint Depression Visibility Wind Speed Wind Dir Waves Ship Positions

Coushatta

Last reported at 2017-Oct-22 13:02 UTC. Time now 2017-Oct-22 23:07 UTC.
Position N 29°44' W 095°01'.

Length 22 m; draft 3 m.

Type: Towing. MMSI: 367456770.

Date/timePositionNaut miles runAvg speedWind from/ knotsBaromVisibWave heightAir tempDewpointWater temp
2017-Oct-22 13:02N 29°44' W 095°01'0 1.0
2017-Oct-22 13:00N 29°44' W 095°01'0 0.2
2017-Oct-22 12:24N 29°44' W 095°01'0 0.0
2017-Oct-22 08:28N 29°44' W 095°01'0 0.0
2017-Oct-21 15:28N 29°44' W 095°01'0 0.0
2017-Oct-21 14:02N 29°44' W 095°01'0 0.0
2017-Oct-21 13:29N 29°44' W 095°01'0 0.0
2017-Oct-21 06:52N 29°44' W 095°01'2 4.6
2017-Oct-21 06:21N 29°42' W 094°60'2 6.8
2017-Oct-21 06:00N 29°40' W 094°58'71 4.3
2017-Oct-20 13:25N 30°04' W 093°41'2 4.7
2017-Oct-20 13:00N 30°04' W 093°39'3 5.6
2017-Oct-20 12:30N 30°04' W 093°35'3 6.0
2017-Oct-20 12:00N 30°04' W 093°32'3 6.1
2017-Oct-20 11:30N 30°04' W 093°28'3 5.3
2017-Oct-20 11:00N 30°04' W 093°25'3 5.7
2017-Oct-20 10:30N 30°04' W 093°22'1 2.7
2017-Oct-20 10:00N 30°04' W 093°21'0 0.0
2017-Oct-20 09:30N 30°04' W 093°21'0 0.0
2017-Oct-20 09:00N 30°04' W 093°21'0 0.1
2017-Oct-20 08:30N 30°04' W 093°21'1 1.3
2017-Oct-20 08:00N 30°05' W 093°20'1 1.1
2017-Oct-20 07:30N 30°04' W 093°21'1 2.2
2017-Oct-20 07:00N 30°04' W 093°22'1 1.3
2017-Oct-20 06:30N 30°04' W 093°22'0 0.1
2017-Oct-20 06:01N 30°04' W 093°22'0 0.0
2017-Oct-20 05:30N 30°04' W 093°22'0 0.6
2017-Oct-20 05:00N 30°04' W 093°23'2 3.2
2017-Oct-20 04:30N 30°04' W 093°25'1 2.5
2017-Oct-20 04:00N 30°04' W 093°26'2 4.3
2017-Oct-20 03:30N 30°04' W 093°29'2 4.7
2017-Oct-20 03:00N 30°04' W 093°31'20 1.5
2017-Oct-19 14:15N 29°56' W 093°52'0 0.0
2017-Oct-19 13:59N 29°56' W 093°52'0 0.0
2017-Oct-19 13:30N 29°56' W 093°52'0 0.0
2017-Oct-19 09:41N 29°56' W 093°52'0 0.0
2017-Oct-19 09:28N 29°56' W 093°52'58 2.8
2017-Oct-18 12:23N 29°31' W 094°53'2 6.0
2017-Oct-18 12:00N 29°32' W 094°54'3 6.4
2017-Oct-18 11:30N 29°35' W 094°56'3 6.5
2017-Oct-18 11:00N 29°38' W 094°58'3 6.5
2017-Oct-18 10:30N 29°41' W 094°59'3 5.9
2017-Oct-18 09:58N 29°43' W 095°01'3 5.6
2017-Oct-18 09:29N 29°45' W 095°04'3 3.8
2017-Oct-18 08:49N 29°47' W 095°04'0 0.2
2017-Oct-18 08:26N 29°47' W 095°04'5 1.8
2017-Oct-18 05:42N 29°43' W 095°01'1 3.5
2017-Oct-18 05:30N 29°42' W 095°01'3 5.2
2017-Oct-18 05:00N 29°41' W 094°59'3 5.9
2017-Oct-18 04:30N 29°38' W 094°58'70 3.8
2017-Oct-17 10:07N 30°03' W 093°43'1 4.1
2017-Oct-17 09:50N 30°04' W 093°42'1 4.4
2017-Oct-17 09:30N 30°04' W 093°40'2 4.3
2017-Oct-17 09:00N 30°04' W 093°37'2 4.1
2017-Oct-17 08:30N 30°04' W 093°35'2 4.1
2017-Oct-17 08:00N 30°04' W 093°33'2 4.2
2017-Oct-17 07:30N 30°04' W 093°30'2 4.2
2017-Oct-17 07:00N 30°04' W 093°28'2 4.1
2017-Oct-17 06:30N 30°04' W 093°25'2 4.1
2017-Oct-17 06:00N 30°04' W 093°23'2 3.3
2017-Oct-17 05:30N 30°04' W 093°21'2 3.3
2017-Oct-17 05:00N 30°05' W 093°20'0 0.7
2017-Oct-17 04:30N 30°05' W 093°20'0 0.2
2017-Oct-17 04:00N 30°05' W 093°20'0 0.1
2017-Oct-17 03:30N 30°05' W 093°20'0 0.0
2017-Oct-17 03:00N 30°05' W 093°20'0 0.0
2017-Oct-17 02:31N 30°05' W 093°20'0 0.0
2017-Oct-17 02:00N 30°05' W 093°20'0 0.0
2017-Oct-17 01:30N 30°05' W 093°20'0 0.0
2017-Oct-17 01:00N 30°05' W 093°20'0 0.0
2017-Oct-17 00:30N 30°05' W 093°20'0 0.0
2017-Oct-17 00:00N 30°05' W 093°20'0 0.1
2017-Oct-16 23:30N 30°05' W 093°20'2 3.3
2017-Oct-16 23:00N 30°05' W 093°18'1 1.3
2017-Oct-16 22:30N 30°05' W 093°17'2 3.0
2017-Oct-16 22:00N 30°04' W 093°16'0 0.0
2017-Oct-16 21:30N 30°04' W 093°16'0 0.0
2017-Oct-16 21:00N 30°04' W 093°16'0 0.0
2017-Oct-16 20:30N 30°04' W 093°16'0 0.5
2017-Oct-16 20:00N 30°04' W 093°16'2 4.7
2017-Oct-16 19:30N 30°02' W 093°15'3 5.0
2017-Oct-16 19:00N 29°60' W 093°13'3 5.5
2017-Oct-16 18:30N 29°58' W 093°11'2 5.0
2017-Oct-16 18:00N 29°56' W 093°09'3 5.3
2017-Oct-16 17:29N 29°56' W 093°05'39 4.6
2017-Oct-16 09:02N 29°51' W 092°21'0 5.1
2017-Oct-16 09:00N 29°51' W 092°21'2 4.9
2017-Oct-16 08:30N 29°50' W 092°18'2 4.0
2017-Oct-16 08:00N 29°49' W 092°16'1 3.0
2017-Oct-16 07:30N 29°48' W 092°15'2 4.4
2017-Oct-16 07:00N 29°47' W 092°13'2 3.8
2017-Oct-16 06:30N 29°47' W 092°11'3 5.1
2017-Oct-16 06:00N 29°47' W 092°08'3 5.5
2017-Oct-16 05:30N 29°48' W 092°05'  
2017-Oct-12 14:05N 29°50' W 091°60'0 4.3
2017-Oct-12 14:00N 29°50' W 092°00'2 4.3
2017-Oct-12 13:30N 29°49' W 092°02'  

Dump ship's entire track history